createdAt,value
2019-01-26T00:01:37.760Z,100314.05
2019-01-26T00:04:06.850Z,100306.98
2019-01-26T00:06:35.764Z,100313.45
2019-01-26T00:09:09.741Z,100313.73
2019-01-26T00:11:38.819Z,100318.93
2019-01-26T00:14:07.818Z,100315.35
2019-01-26T00:16:36.768Z,100310.96
2019-01-26T00:19:05.744Z,100300.00
2019-01-26T00:21:34.738Z,100302.63
2019-01-26T00:24:03.679Z,100298.11
2019-01-26T00:26:36.385Z,100291.36
2019-01-26T00:29:03.366Z,100286.08
2019-01-26T00:31:32.251Z,100287.98
2019-01-26T00:34:01.228Z,100289.77
2019-01-26T00:36:30.209Z,100284.59
2019-01-26T00:38:59.156Z,100278.23
2019-01-26T00:41:28.125Z,100274.15
2019-01-26T00:43:56.927Z,100277.87
2019-01-26T00:46:28.548Z,100282.89
2019-01-26T00:48:56.539Z,100284.05
2019-01-26T00:51:25.435Z,100268.78
2019-01-26T00:53:54.321Z,100271.84
2019-01-26T00:56:23.295Z,100266.17
2019-01-26T00:58:52.298Z,100247.63
2019-01-26T01:01:21.238Z,100252.80
2019-01-26T01:03:50.203Z,100256.55
2019-01-26T01:06:19.087Z,100260.11
2019-01-26T01:08:48.128Z,100251.41
2019-01-26T01:11:17.152Z,100252.33
2019-01-26T01:13:46.061Z,100252.72
2019-01-26T01:16:15.019Z,100245.42
2019-01-26T01:18:43.942Z,100240.56
2019-01-26T01:21:12.812Z,100238.47
2019-01-26T01:23:41.789Z,100233.33
2019-01-26T01:26:10.607Z,100230.56
2019-01-26T01:28:39.531Z,100220.03
2019-01-26T01:31:08.537Z,100221.53
2019-01-26T01:33:37.662Z,100224.77
2019-01-26T01:36:06.582Z,100220.72
2019-01-26T01:38:35.461Z,100211.66
2019-01-26T01:41:04.446Z,100213.11
2019-01-26T01:43:33.432Z,100215.55
2019-01-26T01:46:02.342Z,100211.33
2019-01-26T01:48:31.283Z,100207.92
2019-01-26T01:51:00.329Z,100208.10
2019-01-26T01:53:29.262Z,100211.98
2019-01-26T01:55:58.244Z,100207.45
2019-01-26T01:58:27.146Z,100206.47
2019-01-26T02:00:56.162Z,100188.78
2019-01-26T02:03:25.002Z,100194.14
2019-01-26T02:05:53.887Z,100197.72
2019-01-26T02:08:22.837Z,100203.20
2019-01-26T02:10:51.712Z,100194.45
2019-01-26T02:13:20.635Z,100202.91
2019-01-26T02:15:49.594Z,100194.45
2019-01-26T02:18:18.577Z,100189.57
2019-01-26T02:20:47.540Z,100177.89
2019-01-26T02:23:16.532Z,100180.03
2019-01-26T02:25:45.380Z,100173.02
2019-01-26T02:28:14.244Z,100179.52
2019-01-26T02:30:43.193Z,100189.89
2019-01-26T02:33:12.052Z,100187.61
2019-01-26T02:35:40.914Z,100188.27
2019-01-26T02:38:09.815Z,100193.47
2019-01-26T02:40:38.714Z,100191.96
2019-01-26T02:43:07.603Z,100183.55
2019-01-26T02:45:36.490Z,100187.41
2019-01-26T02:48:05.379Z,100185.30
2019-01-26T02:50:34.294Z,100195.51
2019-01-26T02:53:03.214Z,100194.03
2019-01-26T02:55:32.248Z,100191.12
2019-01-26T02:58:01.185Z,100194.81
2019-01-26T03:00:30.663Z,100191.05
2019-01-26T03:02:59.493Z,100196.72
2019-01-26T03:05:28.454Z,100186.17
2019-01-26T03:07:57.341Z,100179.37
2019-01-26T03:10:26.317Z,100186.30
2019-01-26T03:12:55.201Z,100181.76
2019-01-26T03:15:24.695Z,100181.95
2019-01-26T03:17:53.620Z,100182.31
2019-01-26T03:20:22.655Z,100188.14
2019-01-26T03:22:51.533Z,100195.76
2019-01-26T03:25:20.441Z,100193.33
2019-01-26T03:27:49.515Z,100193.13
2019-01-26T03:30:20.577Z,100191.03
2019-01-26T03:32:49.466Z,100187.77
2019-01-26T03:35:18.364Z,100190.69
2019-01-26T03:37:47.353Z,100191.64
2019-01-26T03:40:18.268Z,100187.74
2019-01-26T03:42:48.409Z,100194.91
2019-01-26T03:45:17.388Z,100190.98
2019-01-26T03:47:46.357Z,100194.88
2019-01-26T03:50:42.753Z,100193.91
2019-01-26T03:53:11.774Z,100185.62
2019-01-26T03:55:40.747Z,100189.98
2019-01-26T03:58:09.689Z,100185.70
2019-01-26T04:00:38.652Z,100181.20
2019-01-26T04:03:07.647Z,100188.89
2019-01-26T04:05:36.639Z,100192.01
2019-01-26T04:08:05.617Z,100187.81
2019-01-26T04:10:34.541Z,100184.06
2019-01-26T04:13:03.503Z,100187.27
2019-01-26T04:15:32.398Z,100185.86
2019-01-26T04:18:01.278Z,100181.14
2019-01-26T04:20:30.221Z,100179.67
2019-01-26T04:22:59.222Z,100180.45
2019-01-26T04:25:28.088Z,100171.63
2019-01-26T04:27:56.987Z,100173.89
2019-01-26T04:30:25.975Z,100172.45
2019-01-26T04:32:54.959Z,100163.48
2019-01-26T04:35:23.872Z,100168.05
2019-01-26T04:37:52.758Z,100170.86
2019-01-26T04:40:21.741Z,100162.08
2019-01-26T04:42:50.636Z,100163.38
2019-01-26T04:45:21.685Z,100161.05
2019-01-26T04:47:50.619Z,100159.72
2019-01-26T04:50:19.940Z,100162.17
2019-01-26T04:52:48.830Z,100162.67
2019-01-26T04:55:19.308Z,100156.76
2019-01-26T04:57:48.248Z,100151.73
2019-01-26T05:00:27.949Z,100144.69
2019-01-26T05:02:56.909Z,100141.81
2019-01-26T05:05:25.911Z,100136.47
2019-01-26T05:07:54.802Z,100133.34
2019-01-26T05:10:23.987Z,100141.14
2019-01-26T05:12:52.870Z,100132.17
2019-01-26T05:15:21.778Z,100136.34
2019-01-26T05:17:50.749Z,100135.09
2019-01-26T05:20:22.165Z,100134.99
2019-01-26T05:22:51.158Z,100138.05
2019-01-26T05:25:20.015Z,100129.08
2019-01-26T05:27:48.911Z,100128.63
2019-01-26T05:30:23.744Z,100130.77
2019-01-26T05:32:52.723Z,100127.09
2019-01-26T05:35:21.692Z,100129.57
2019-01-26T05:37:50.698Z,100126.80
2019-01-26T05:40:19.763Z,100125.84
2019-01-26T05:42:48.610Z,100125.03
2019-01-26T05:45:19.355Z,100117.41
2019-01-26T05:47:49.624Z,100123.19
2019-01-26T05:50:20.473Z,100121.35
2019-01-26T05:52:49.374Z,100123.99
2019-01-26T05:55:18.362Z,100127.27
2019-01-26T05:57:47.337Z,100116.37
2019-01-26T06:00:20.830Z,100124.13
2019-01-26T06:02:49.814Z,100125.61
2019-01-26T06:05:18.763Z,100125.53
2019-01-26T06:07:47.753Z,100124.98
2019-01-26T06:10:16.757Z,100120.02
2019-01-26T06:12:45.731Z,100121.63
2019-01-26T06:15:14.802Z,100118.34
2019-01-26T06:17:43.783Z,100115.80
2019-01-26T06:20:12.922Z,100107.75
2019-01-26T06:22:41.820Z,100118.03
2019-01-26T06:25:12.137Z,100108.48
2019-01-26T06:27:41.106Z,100114.62
2019-01-26T06:30:18.634Z,100108.97
2019-01-26T06:32:47.516Z,100107.12
2019-01-26T06:35:16.621Z,100107.89
2019-01-26T06:37:45.611Z,100099.59
2019-01-26T06:40:16.342Z,100100.17
2019-01-26T06:42:45.316Z,100103.21
2019-01-26T06:45:15.840Z,100098.33
2019-01-26T06:47:44.826Z,100102.23
2019-01-26T06:50:18.138Z,100090.92
2019-01-26T06:52:47.143Z,100095.59
2019-01-26T06:55:16.145Z,100090.34
2019-01-26T06:57:45.027Z,100095.28
2019-01-26T07:00:16.299Z,100097.53
2019-01-26T07:02:45.202Z,100089.88
2019-01-26T07:05:25.980Z,100088.28
2019-01-26T07:07:54.914Z,100081.77
2019-01-26T07:10:23.802Z,100081.14
2019-01-26T07:12:52.802Z,100084.02
2019-01-26T07:15:21.751Z,100080.09
2019-01-26T07:17:50.610Z,100080.55
2019-01-26T07:20:19.575Z,100079.17
2019-01-26T07:22:48.653Z,100081.59
2019-01-26T07:25:17.589Z,100086.93
2019-01-26T07:27:46.577Z,100089.78
2019-01-26T07:30:17.499Z,100093.46
2019-01-26T07:32:46.510Z,100097.73
2019-01-26T07:35:49.004Z,100090.73
2019-01-26T07:38:17.885Z,100094.14
2019-01-26T07:40:46.781Z,100093.95
2019-01-26T07:43:15.675Z,100084.53
2019-01-26T07:45:44.577Z,100089.88
2019-01-26T07:48:16.967Z,100086.34
2019-01-26T07:50:44.191Z,100082.38
2019-01-26T07:53:13.070Z,100075.24
2019-01-26T07:55:42.047Z,100079.20
2019-01-26T07:58:11.033Z,100078.97
2019-01-26T08:00:41.246Z,100080.19
2019-01-26T08:03:10.416Z,100078.94
2019-01-26T08:05:39.389Z,100076.17
2019-01-26T08:08:08.314Z,100066.48
2019-01-26T08:10:37.211Z,100071.06
2019-01-26T08:13:06.382Z,100064.49
2019-01-26T08:15:37.116Z,100067.01
2019-01-26T08:18:07.655Z,100069.16
2019-01-26T08:20:36.533Z,100073.91
2019-01-26T08:23:05.655Z,100074.09
2019-01-26T08:25:34.611Z,100074.14
2019-01-26T08:28:03.700Z,100078.55
2019-01-26T08:30:32.665Z,100081.27
2019-01-26T08:33:01.668Z,100081.89
2019-01-26T08:35:30.556Z,100077.48
2019-01-26T08:37:59.470Z,100074.79
2019-01-26T08:40:28.467Z,100070.97
2019-01-26T08:42:57.377Z,100064.57
2019-01-26T08:45:26.248Z,100063.52
2019-01-26T08:47:55.145Z,100060.97
2019-01-26T08:50:25.570Z,100056.81
2019-01-26T08:52:54.586Z,100065.50
2019-01-26T08:55:23.556Z,100060.66
2019-01-26T08:57:52.548Z,100061.86
2019-01-26T09:00:23.663Z,100060.79
2019-01-26T09:03:12.030Z,100062.48
2019-01-26T09:05:58.153Z,100057.33
2019-01-26T09:08:27.152Z,100056.63
2019-01-26T09:10:56.224Z,100059.48
2019-01-26T09:13:25.173Z,100060.11
2019-01-26T09:15:54.178Z,100057.74
2019-01-26T09:18:23.177Z,100061.67
2019-01-26T09:20:52.147Z,100061.78
2019-01-26T09:23:21.157Z,100060.66
2019-01-26T09:25:50.052Z,100064.38
2019-01-26T09:28:19.362Z,100061.61
2019-01-26T09:30:48.248Z,100062.89
2019-01-26T09:33:17.286Z,100060.72
2019-01-26T09:35:46.182Z,100059.30
2019-01-26T09:38:15.128Z,100054.76
2019-01-26T09:40:44.988Z,100057.77
2019-01-26T09:43:13.905Z,100051.04
2019-01-26T09:45:42.980Z,100058.44
2019-01-26T09:48:11.959Z,100059.61
2019-01-26T09:50:41.964Z,100057.32
2019-01-26T09:53:11.037Z,100056.95
2019-01-26T09:55:39.990Z,100058.44
2019-01-26T09:58:08.924Z,100057.69
2019-01-26T10:00:37.897Z,100056.63
2019-01-26T10:03:07.152Z,100051.84
2019-01-26T10:05:36.112Z,100053.41
2019-01-26T10:08:05.310Z,100050.67
2019-01-26T10:10:34.171Z,100048.94
2019-01-26T10:13:03.319Z,100049.75
2019-01-26T10:15:32.388Z,100047.59
2019-01-26T10:18:01.379Z,100050.37
2019-01-26T10:20:34.148Z,100049.78
2019-01-26T10:23:03.136Z,100042.48
2019-01-26T10:25:32.100Z,100047.17
2019-01-26T10:28:01.098Z,100048.97
2019-01-26T10:30:35.218Z,100047.98
2019-01-26T10:33:04.255Z,100045.25
2019-01-26T10:35:56.816Z,100049.09
2019-01-26T10:38:25.848Z,100046.37
2019-01-26T10:41:22.908Z,100047.20
2019-01-26T10:43:52.793Z,100044.94
2019-01-26T10:46:21.734Z,100042.09
2019-01-26T10:48:51.670Z,100043.23
2019-01-26T10:51:20.606Z,100041.08
2019-01-26T10:54:07.597Z,100050.17
2019-01-26T10:56:36.499Z,100052.66
2019-01-26T10:59:32.804Z,100052.84
2019-01-26T11:02:01.735Z,100047.36
2019-01-26T11:04:30.643Z,100041.40
2019-01-26T11:06:59.609Z,100041.27
2019-01-26T11:09:28.631Z,100042.70
2019-01-26T11:11:57.570Z,100041.24
2019-01-26T11:14:26.574Z,100040.22
2019-01-26T11:16:55.554Z,100039.11
2019-01-26T11:19:24.551Z,100028.67
2019-01-26T11:21:53.547Z,100033.77
2019-01-26T11:24:22.601Z,100032.22
2019-01-26T11:26:51.494Z,100030.45
2019-01-26T11:29:20.465Z,100035.41
2019-01-26T11:31:49.494Z,100032.41
2019-01-26T11:34:21.322Z,100028.48
2019-01-26T11:36:50.296Z,100023.86
2019-01-26T11:39:19.203Z,100032.23
2019-01-26T11:41:48.202Z,100024.09
2019-01-26T11:44:17.135Z,100020.44
2019-01-26T11:46:52.947Z,100014.23
2019-01-26T11:49:21.817Z,100013.44
2019-01-26T11:52:09.798Z,100005.59
2019-01-26T11:54:59.101Z,100010.56
2019-01-26T11:57:31.005Z,100009.45
2019-01-26T12:00:28.009Z,100006.66
2019-01-26T12:03:28.403Z,100003.17
2019-01-26T12:06:14.844Z,99998.70
2019-01-26T12:08:43.852Z,99997.88
2019-01-26T12:11:12.873Z,99995.10
2019-01-26T12:13:41.904Z,99990.20
2019-01-26T12:16:10.903Z,99996.66
2019-01-26T12:18:39.843Z,99983.92
2019-01-26T12:21:08.818Z,99990.70
2019-01-26T12:23:37.756Z,99990.56
2019-01-26T12:26:06.840Z,99985.22
2019-01-26T12:28:35.815Z,99979.55
2019-01-26T12:31:04.892Z,99987.06
2019-01-26T12:33:33.937Z,99986.91
2019-01-26T12:36:02.800Z,99986.03
2019-01-26T12:38:31.769Z,99984.34
2019-01-26T12:41:00.758Z,99975.83
2019-01-26T12:43:30.166Z,99970.99
2019-01-26T12:45:59.209Z,99975.91
2019-01-26T12:48:28.209Z,99962.63
2019-01-26T12:50:57.251Z,99964.35
2019-01-26T12:53:26.147Z,99967.27
2019-01-26T12:55:55.118Z,99966.34
2019-01-26T12:58:24.122Z,99962.55
2019-01-26T13:00:53.160Z,99964.70
2019-01-26T13:03:22.210Z,99966.91
2019-01-26T13:05:51.213Z,99962.09
2019-01-26T13:08:20.099Z,99963.85
2019-01-26T13:10:52.131Z,99960.77
2019-01-26T13:13:21.300Z,99963.96
2019-01-26T13:15:50.306Z,99958.83
2019-01-26T13:18:19.361Z,99959.86
2019-01-26T13:20:48.385Z,99960.66
2019-01-26T13:23:17.284Z,99957.08
2019-01-26T13:25:46.213Z,99952.46
2019-01-26T13:28:15.188Z,99945.02
2019-01-26T13:30:44.123Z,99949.23
2019-01-26T13:33:13.021Z,99946.50
2019-01-26T13:35:41.931Z,99946.50
2019-01-26T13:38:11.007Z,99946.95
2019-01-26T13:40:39.982Z,99939.13
2019-01-26T13:43:08.968Z,99942.09
2019-01-26T13:45:38.047Z,99940.34
2019-01-26T13:48:07.035Z,99938.05
2019-01-26T13:50:36.193Z,99939.28
2019-01-26T13:53:05.353Z,99938.19
2019-01-26T13:55:34.281Z,99939.41
2019-01-26T13:58:03.339Z,99935.69
2019-01-26T14:00:32.699Z,99935.48
2019-01-26T14:03:03.163Z,99922.85
2019-01-26T14:05:32.160Z,99924.02
2019-01-26T14:08:01.165Z,99921.02
2019-01-26T14:13:58.546Z,99922.85
2019-01-26T14:17:27.583Z,99908.36
2019-01-26T14:19:56.527Z,99908.97
2019-01-26T14:22:25.489Z,99908.97
2019-01-26T14:24:54.432Z,99909.19
2019-01-26T14:27:23.427Z,99903.09
2019-01-26T14:29:52.480Z,99902.45
2019-01-26T14:32:21.542Z,99900.25
2019-01-26T14:35:41.920Z,99898.23
2019-01-26T14:38:10.839Z,99899.07
2019-01-26T14:44:45.134Z,99887.13
2019-01-26T14:47:14.115Z,99882.67
2019-01-26T14:49:43.204Z,99888.31
2019-01-26T14:52:12.308Z,99887.59
2019-01-26T14:54:41.311Z,99883.42
2019-01-26T14:57:10.278Z,99883.00
2019-01-26T14:59:39.282Z,99877.06
2019-01-26T15:02:08.425Z,99878.70
2019-01-26T15:04:37.374Z,99864.94
2019-01-26T15:07:06.278Z,99871.19
2019-01-26T15:09:35.334Z,99869.54
2019-01-26T15:12:04.388Z,99861.52
2019-01-26T15:14:33.405Z,99864.21
2019-01-26T15:17:02.499Z,99858.88
2019-01-26T15:19:31.419Z,99860.58
2019-01-26T15:22:00.419Z,99857.39
2019-01-26T15:24:29.482Z,99855.30
2019-01-26T15:30:29.443Z,99850.37
2019-01-26T15:32:58.815Z,99854.00
2019-01-26T15:35:27.863Z,99845.88
2019-01-26T15:37:56.921Z,99846.48
2019-01-26T15:40:25.890Z,99848.25
2019-01-26T15:42:54.991Z,99839.66
2019-01-26T15:45:29.974Z,99840.96
2019-01-26T15:47:58.969Z,99833.64
2019-01-26T15:50:28.017Z,99834.61
2019-01-26T15:52:57.024Z,99830.00
2019-01-26T15:55:26.574Z,99827.84
2019-01-26T15:58:05.611Z,99827.28
2019-01-26T16:00:37.097Z,99828.31
2019-01-26T16:03:06.154Z,99829.59
2019-01-26T16:05:38.158Z,99820.80
2019-01-26T16:08:07.842Z,99816.27
2019-01-26T16:10:36.860Z,99808.97
2019-01-26T16:13:06.164Z,99813.16
2019-01-26T16:15:35.562Z,99811.58
2019-01-26T16:18:05.974Z,99805.91
2019-01-26T16:20:35.020Z,99805.33
2019-01-26T16:23:09.426Z,99806.05
2019-01-26T16:25:34.952Z,99800.69
2019-01-26T16:28:03.952Z,99796.38
2019-01-26T16:30:33.296Z,99803.66
2019-01-26T16:33:59.454Z,99796.27
2019-01-26T16:36:28.501Z,99796.47
2019-01-26T16:38:57.495Z,99795.81
2019-01-26T16:41:26.539Z,99796.72
2019-01-26T16:43:55.555Z,99782.77
2019-01-26T16:46:24.499Z,99782.88
2019-01-26T16:48:54.087Z,99783.62
2019-01-26T16:51:23.072Z,99791.91
2019-01-26T16:53:52.016Z,99785.89
2019-01-26T16:56:21.012Z,99779.72
2019-01-26T16:58:50.019Z,99779.52
2019-01-26T17:02:16.829Z,99774.89
2019-01-26T17:04:45.714Z,99774.62
2019-01-26T17:07:14.768Z,99768.39
2019-01-26T17:09:43.832Z,99764.72
2019-01-26T17:12:12.874Z,99761.31
2019-01-26T17:14:41.919Z,99755.29
2019-01-26T17:17:10.946Z,99752.78
2019-01-26T17:19:40.001Z,99747.90
2019-01-26T17:22:09.040Z,99741.06
2019-01-26T17:24:38.034Z,99741.37
2019-01-26T17:27:07.036Z,99742.61
2019-01-26T17:29:36.012Z,99739.48
2019-01-26T17:32:05.013Z,99732.16
2019-01-26T17:34:33.979Z,99731.95
2019-01-26T17:37:02.992Z,99731.27
2019-01-26T17:39:32.114Z,99725.52
2019-01-26T17:42:01.035Z,99731.92
2019-01-26T17:44:30.115Z,99720.97
2019-01-26T17:46:59.272Z,99725.89
2019-01-26T17:49:28.707Z,99714.91
2019-01-26T17:55:26.448Z,99716.61
2019-01-26T17:57:55.896Z,99718.24
2019-01-26T18:00:43.235Z,99717.74
2019-01-26T18:03:12.852Z,99706.78
2019-01-26T18:05:43.069Z,99698.81
2019-01-26T18:08:12.836Z,99699.61
2019-01-26T18:10:42.535Z,99700.36
2019-01-26T18:13:12.539Z,99690.08
2019-01-26T18:15:44.105Z,99688.37
2019-01-26T18:18:13.430Z,99682.82
2019-01-26T18:20:48.930Z,99695.06
2019-01-26T18:23:15.128Z,99684.89
2019-01-26T18:25:45.454Z,99681.81
2019-01-26T18:28:14.628Z,99676.58
2019-01-26T18:30:43.732Z,99679.75
2019-01-26T18:33:12.729Z,99669.41
2019-01-26T18:35:42.337Z,99665.27
2019-01-26T18:38:11.337Z,99667.80
2019-01-26T18:40:40.318Z,99665.27
2019-01-26T18:43:09.271Z,99659.53
2019-01-26T18:45:38.524Z,99656.83
2019-01-26T18:48:07.977Z,99652.91
2019-01-26T18:50:39.481Z,99648.27
2019-01-26T18:53:09.637Z,99644.55
2019-01-26T18:55:39.804Z,99644.63
2019-01-26T18:58:08.871Z,99633.88
2019-01-26T19:00:43.502Z,99632.36
2019-01-26T19:03:36.706Z,99632.78
2019-01-26T19:06:06.581Z,99629.15
2019-01-26T19:08:35.605Z,99619.14
2019-01-26T19:11:04.918Z,99618.47
2019-01-26T19:13:33.922Z,99616.66
2019-01-26T19:16:02.897Z,99615.27
2019-01-26T19:18:31.877Z,99617.17
2019-01-26T19:21:03.349Z,99613.84
2019-01-26T19:23:31.502Z,99609.91
2019-01-26T19:26:00.446Z,99609.53
2019-01-26T19:28:29.511Z,99601.84
2019-01-26T19:30:58.608Z,99601.39
2019-01-26T19:33:27.637Z,99591.45
2019-01-26T19:35:56.658Z,99591.31
2019-01-26T19:38:25.847Z,99595.53
2019-01-26T19:40:54.845Z,99598.36
2019-01-26T19:43:24.892Z,99583.28
2019-01-26T19:45:53.777Z,99592.92
2019-01-26T19:48:22.885Z,99581.66
2019-01-26T19:50:51.841Z,99578.07
2019-01-26T19:53:20.872Z,99571.11
2019-01-26T19:55:50.598Z,99578.53
2019-01-26T19:58:20.099Z,99566.66
2019-01-26T20:00:49.155Z,99559.42
2019-01-26T20:03:18.101Z,99557.13
2019-01-26T20:05:48.177Z,99551.63
2019-01-26T20:08:17.263Z,99549.75
2019-01-26T20:10:46.285Z,99551.27
2019-01-26T20:13:15.390Z,99535.37
2019-01-26T20:15:44.621Z,99537.10
2019-01-26T20:18:13.680Z,99533.77
2019-01-26T20:20:42.607Z,99527.95
2019-01-26T20:23:11.527Z,99526.64
2019-01-26T20:25:40.422Z,99511.21
2019-01-26T20:28:09.444Z,99516.02
2019-01-26T20:30:38.639Z,99510.14
2019-01-26T20:33:07.703Z,99511.80
2019-01-26T20:35:36.625Z,99503.31
2019-01-26T20:38:05.650Z,99504.91
2019-01-26T20:40:34.928Z,99499.60
2019-01-26T20:43:03.928Z,99501.69
2019-01-26T20:45:32.960Z,99495.36
2019-01-26T20:48:01.977Z,99488.47
2019-01-26T20:50:31.133Z,99487.80
2019-01-26T20:53:06.433Z,99475.91
2019-01-26T20:55:36.333Z,99470.67
2019-01-26T20:58:26.424Z,99475.05
2019-01-26T21:00:55.446Z,99461.38
2019-01-26T21:03:24.482Z,99457.84
2019-01-26T21:05:53.617Z,99463.69
2019-01-26T21:08:22.602Z,99463.77
2019-01-26T21:10:51.587Z,99456.83
2019-01-26T21:13:20.513Z,99456.84
2019-01-26T21:15:49.603Z,99450.09
2019-01-26T21:18:18.603Z,99458.53
2019-01-26T21:20:47.580Z,99450.26
2019-01-26T21:23:16.730Z,99454.34
2019-01-26T21:25:45.707Z,99442.78
2019-01-26T21:28:14.783Z,99442.20
2019-01-26T21:31:23.077Z,99438.48
2019-01-26T21:33:52.072Z,99436.83
2019-01-26T21:36:21.140Z,99430.56
2019-01-26T21:38:50.241Z,99423.81
2019-01-26T21:41:19.245Z,99425.34
2019-01-26T21:43:48.296Z,99417.86
2019-01-26T21:46:17.307Z,99413.50
2019-01-26T21:48:46.282Z,99414.59
2019-01-26T21:51:15.322Z,99409.50
2019-01-26T21:53:44.223Z,99415.98
2019-01-26T21:56:13.228Z,99404.64
2019-01-26T21:58:42.158Z,99398.39
2019-01-26T22:01:11.138Z,99404.50
2019-01-26T22:03:40.169Z,99403.95
2019-01-26T22:06:09.161Z,99394.08
2019-01-26T22:08:38.160Z,99394.58
2019-01-26T22:11:07.175Z,99390.87
2019-01-26T22:13:36.210Z,99390.91
2019-01-26T22:16:05.470Z,99386.34
2019-01-26T22:18:34.429Z,99385.17
2019-01-26T22:21:03.385Z,99387.28
2019-01-26T22:23:32.384Z,99386.19
2019-01-26T22:26:01.380Z,99375.00
2019-01-26T22:28:30.417Z,99369.63
2019-01-26T22:30:59.337Z,99364.46
2019-01-26T22:33:28.219Z,99373.63
2019-01-26T22:35:57.179Z,99365.84
2019-01-26T22:38:26.205Z,99360.55
2019-01-26T22:40:55.139Z,99362.43
2019-01-26T22:43:24.066Z,99350.38
2019-01-26T22:45:53.219Z,99348.52
2019-01-26T22:48:23.589Z,99339.14
2019-01-26T22:50:52.549Z,99339.80
2019-01-26T22:53:21.429Z,99341.90
2019-01-26T22:55:50.388Z,99333.08
2019-01-26T22:58:19.316Z,99332.23
2019-01-26T23:00:54.255Z,99322.18
2019-01-26T23:03:30.581Z,99314.98
2019-01-26T23:06:25.614Z,99314.77
2019-01-26T23:08:54.892Z,99304.74
2019-01-26T23:12:03.722Z,99299.63
2019-01-26T23:14:51.853Z,99288.56
2019-01-26T23:21:10.289Z,99280.72
2019-01-26T23:24:19.520Z,99278.32
2019-01-26T23:27:14.257Z,99271.56
2019-01-26T23:30:31.673Z,99262.56
2019-01-26T23:33:00.702Z,99257.19
2019-01-26T23:35:29.610Z,99252.52
2019-01-26T23:37:58.551Z,99248.95
2019-01-26T23:40:27.547Z,99247.86
2019-01-26T23:43:09.081Z,99239.73
2019-01-26T23:45:38.060Z,99237.34
2019-01-26T23:48:06.994Z,99232.11
2019-01-26T23:50:35.909Z,99225.28
2019-01-26T23:53:05.289Z,99225.06
2019-01-26T23:55:34.205Z,99212.72
2019-01-26T23:58:03.198Z,99213.59
